CheckWX is a tool to help pilots better visualize weather data.  It is not intended as a substitute for an official pre-flight weather briefing.

12:23:36 UTC

PADQ METAR
Kodiak Airport
Kodiak, Alaska, USA
Current

31 mins ago

PADQ 271153Z AUTO 31013G18KT 10SM CLR 12/09 A3015 RMK AO2 SLP208 T01220094 10172 20122 58000 TSNO
Observed
Jun-27 @ 11:53 UTC
Wind
  • 310° at 13 KTS
  • Gusting to 18 KTS
Visibility
10 SM
Flight Rules
VFR
Cloud Levels
  • Clear skies
Temperature
12°C / 54°F
Dewpoint
C / 48°F
Humidity
82%
Altimeter
30.15" Hg
Pressure
1021.02 hPa
Previous

2 hours ago

PADQ 271053Z AUTO 31012KT 10SM CLR 13/09 A3015 RMK AO2 SLP210 T01280094 TSNO
Observed
Jun-27 @ 10:53 UTC
Wind
  • 310° at 12 KTS
Visibility
10 SM
Flight Rules
VFR
Cloud Levels
  • Clear skies
Temperature
13°C / 55°F
Dewpoint
C / 48°F
Humidity
77%
Altimeter
30.15" Hg
Pressure
1021.02 hPa
Previous

3 hours ago

PADQ 270953Z AUTO 31008KT 10SM CLR 13/10 A3015 RMK AO2 SLP209 T01330100 TSNO
Observed
Jun-27 @ 09:53 UTC
Wind
  • 310° at 8 KTS
Visibility
10 SM
Flight Rules
VFR
Cloud Levels
  • Clear skies
Temperature
13°C / 55°F
Dewpoint
10°C / 50°F
Humidity
82%
Altimeter
30.15" Hg
Pressure
1021.02 hPa